CheckWX is a tool to help pilots better visualize weather data.  It is not intended as a substitute for an official pre-flight weather briefing.

21:27:45 UTC

KORH METAR
Worcester Regional Airport
Worcester, Massachusetts, USA
Current

34 mins ago

KORH 232054Z 18012KT 9SM -RA FEW070 OVC095 14/11 A2998 RMK AO2 RAB18 PRESFR SLP154 P0001 60001 T01440111 58017
Observed
May-23 @ 20:54 UTC
Wind
  • 180° at 12 KTS
Visibility
9 SM
Flight Rules
VFR
Conditions
Light Rain
Cloud Levels
  • Few at 7,000' AGL
  • Overcast at 9,500' AGL
Temperature
14°C / 57°F
Dewpoint
11°C / 52°F
Humidity
82%
Altimeter
29.98" Hg
Pressure
1015.22 hPa
Current Rain
0.01"
Previous

2 hours ago

KORH 231954Z 21015KT 10SM BKN038 OVC110 18/09 A3002 RMK AO2 SLP166 T01780089
Observed
May-23 @ 19:54 UTC
Wind
  • 210° at 15 KTS
Visibility
10 SM
Flight Rules
VFR
Cloud Levels
  • Broken at 3,800' AGL
  • Overcast at 11,000' AGL
Temperature
18°C / 64°F
Dewpoint
C / 48°F
Humidity
56%
Altimeter
30.02" Hg
Pressure
1016.62 hPa
Previous

3 hours ago

KORH 231854Z 20018G24KT 10SM FEW120 18/08 A3003 RMK AO2 PK WND 21026/1758 SLP170 T01830083
Observed
May-23 @ 18:54 UTC
Wind
  • 200° at 18 KTS
  • Gusting to 24 KTS
Visibility
10 SM
Flight Rules
VFR
Cloud Levels
  • Few at 12,000' AGL
Temperature
18°C / 64°F
Dewpoint
C / 46°F
Humidity
52%
Altimeter
30.03" Hg
Pressure
1016.92 hPa